Pioche, Nevada Weather observations

Data are for observation ending at time listed.
 Day   Time    Ave.   Ave.  Ave.  Vector   Max.   Stn.    Total    Solar   Ave.  
  of    of     Air    Rel.  Wind   Wind    Wind   Baro.  Precip.   Rad.    Soil  
Year   Day     Temp.  Hum.  Speed  Dir.    Gust   Pres.                    Temp. 
2026   (PST)    F      %     mph   deg.    mph     mb.     in.     W/m2     F   
------------------------------------------------------------------------------
 126    0:00   48.9    61    2.3   252      5.5   816.7    0.00       0    59.6
 126    0:10   48.8    61    2.3   248      4.8   816.7    0.00       0    59.6
 126    0:20   48.5    62    0.3   174      2.9   816.7    0.00       0    59.6
 126    0:30   48.1    62    0.1   175      0.9   816.7    0.00       0    59.6
 126    0:40   47.0    64    0.2   204      1.0   816.8    0.00       0    59.5
 126    0:50   46.6    64    0.7   173      1.7   816.7    0.00       0    59.5
 126    1:00   46.4    63    0.7   245      2.3   816.7    0.00       0    59.5
 126    1:10   45.8    64    0.5   254      2.3   816.7    0.00       0    59.5
 126    1:20   45.4    66    0.9   230      2.0   816.8    0.00       0    59.5
 126    1:30   45.9    65    1.1   206      2.5   816.8    0.00       0    59.4
 126    1:40   46.0    65    0.3   187      1.5   816.9    0.00       0    59.4
 126    1:50   45.8    66    0.7   147      1.8   817.0    0.00       0    59.3
 126    2:00   44.9    67    1.2   264      4.2   817.1    0.00       0    59.3
 126    2:10   44.7    67    2.2   266      4.5   817.4    0.00       0    59.3
 126    2:20   43.8    70    1.8   217      3.9   817.2    0.00       0    59.3
 126    2:30   45.2    68    1.1   206      4.4   817.2    0.00       0    59.3
 126    2:40   45.9    65    1.3   235      2.7   817.2    0.00       0    59.2
 126    2:50   46.9    62    1.7   254      4.5   817.1    0.00       0    59.2
 126    3:00   46.4    62    1.4   269      5.0   817.3    0.00       0    59.1
 126    3:10   42.4    70    1.3   133      2.5   817.4    0.00       0    59.1
 126    3:20   42.6    71    0.8    73      5.2   817.5    0.00       0    59.1
 126    3:30   41.3    73    2.3    93      4.6   817.7    0.00       0    59.1
 126    3:40   41.4    73    0.8   153      1.8   817.8    0.00       0    59.1
 126    3:50   41.4    74    1.7   177      2.9   817.8    0.00       0    59.1
 126    4:00   42.2    72    1.3   189      2.9   817.7    0.00       0    59.0
 126    4:10   43.9    68    1.9   255      3.8   817.7    0.00       0    59.0
 126    4:20   45.9    64    2.7   268      3.9   817.8    0.00       0    58.9
 126    4:30   45.6    64    3.0   270      4.7   817.9    0.00       0    58.9
 126    4:40   44.9    65    1.9   267      3.7   817.9    0.00       2    58.9
 126    4:50   45.2    64    1.4    21      2.4   818.1    0.00       9    58.9
 126    5:00   44.7    66    1.3    84      2.9   818.3    0.00      13    58.9
 126    5:10   43.7    69    3.0    81      4.1   818.5    0.00      20    58.8
 126    5:20   44.1    69    1.7   115      3.3   818.6    0.00      26    58.8
 126    5:30   45.1    67    1.3    75      2.5   818.7    0.00      29    58.8
 126    5:40   45.7    65    0.1   292      1.1   818.9    0.00      35    58.7
 126    5:50   45.7    65    0.9   298      2.0   819.1    0.00      38    58.7
 126    6:00   46.1    65    1.2   291      2.2   819.3    0.00     171    58.7
 126    6:10   47.8    61    0.4   309      2.8   819.4    0.00     171    58.7
 126    6:20   49.0    58    1.8   311      3.9   819.5    0.00     182    58.6
 126    6:30   50.4    56    1.5   314      3.7   819.6    0.00     101    58.6
 126    6:40   51.7    54    1.2   312      3.8   819.7    0.00     177    58.6
 126    6:50   51.9    54    2.2   294      6.1   819.8    0.00     396    58.6
 126    7:00   52.4    53    4.1   301      8.0   819.9    0.00     341    58.5
 126    7:10   53.1    51    4.4   303      7.5   820.0    0.00     513    58.5
 126    7:20   54.1    50    5.1   296     10.2   820.1    0.00     559    58.5
 126    7:30   55.0    48    6.0   296     11.8   820.1    0.00     594    58.5
 126    7:40   56.1    46    3.3   307      8.6   820.2    0.00     628    58.5
 126    7:50   57.3    44    3.2   312      7.3   820.3    0.00     664    58.5
 126    8:00   58.6    41    3.6   307      8.3   820.3    0.00     697    58.5
 126    8:10   58.9    39    7.0   293     11.2   820.3    0.00     728    58.5
 126    8:20   58.9    39    8.4   290     15.2   820.4    0.00     774    58.5
 126    8:30   58.8    40    9.7   283     17.6   820.4    0.00     527    58.5
 126    8:40   58.2    41    8.5   281     16.6   820.4    0.00     390    58.5
 126    8:50   59.1    38    6.5   292     18.9   820.5    0.00     714    58.5
 126    9:00   61.7    34    2.6   323     10.4   820.6    0.00     873    58.5
 126    9:10   61.0    34    3.4   312      9.0   820.8    0.00     609    58.5
 126    9:20   61.0    34    2.1    36      6.5   820.9    0.00     329    58.4
 126    9:30   61.4    33    1.8    69      5.0   821.0    0.00     941    58.4
 126    9:40   63.1    30    5.0   308      9.9   821.1    0.00     804    58.4
 126    9:50   62.8    28    3.8   314     14.0   821.2    0.00    1138    58.4
 126   10:00   63.3    26    5.0   304     14.2   821.3    0.00     838    58.5
 126   10:10   61.5    29    9.7   291     15.7   821.3    0.00     517    58.5
 126   10:20   62.3    29    7.7   292     17.8   821.3    0.00     830    58.4
 126   10:30   63.3    26    6.7   298     13.7   821.3    0.00    1114    58.4
 126   10:40   63.8    27    7.6   301     14.2   821.3    0.00    1107    58.5
 126   10:50   63.6    27    7.2   294     15.2   821.4    0.00    1135    58.5
 126   11:00   64.1    26    8.2   293     16.4   821.3    0.00    1018    58.5
 126   11:10   64.5    25    7.4   293     18.1   821.2    0.00    1082    58.5
 126   11:20   64.7    23    6.2   304     13.4   821.3    0.00    1061    58.5
 126   11:30   65.7    24    5.1   313     14.5   821.3    0.00    1149    58.6
 126   11:40   65.4    24    8.3   291     14.5   821.3    0.00    1191    58.6
 126   11:50   65.6    23    8.6   298     15.8   821.3    0.00    1094    58.6
 126   12:00   65.5    23    9.2   293     16.6   821.2    0.00    1128    58.6
 126   12:10   65.6    24    9.7   282     16.1   821.2    0.00    1145    58.7
 126   12:20   66.0    23    6.1   291     14.2   821.2    0.00    1060    58.7
 126   12:30   66.6    22    5.8   297     14.5   821.2    0.00     968    58.7
 126   12:40   67.6    21    3.6   295      9.6   821.2    0.00     977    58.8
 126   12:50   67.5    21    2.1   304      5.1   821.3    0.00     923    58.8
 126   13:00   67.8    22    3.9   284     12.5   821.3    0.00     941    58.9
 126   13:10   68.2    21    6.5   298     12.5   821.4    0.00    1067    58.9
 126   13:20   69.3    20    4.4   298     17.5   821.3    0.00     776    58.9

Return to Pioche, Nevada graphs page.


Western Regional Climate Center,wrcc@dri.edu